createdAt,value
2018-06-30T00:00:49.377Z,78.77
2018-06-30T00:01:49.370Z,79.16
2018-06-30T00:02:49.359Z,78.58
2018-06-30T00:03:49.384Z,79.16
2018-06-30T00:04:49.391Z,79.06
2018-06-30T00:05:49.371Z,78.77
2018-06-30T00:06:49.387Z,78.58
2018-06-30T00:07:49.425Z,79.06
2018-06-30T00:08:49.390Z,79.16
2018-06-30T00:09:49.385Z,79.06
2018-06-30T00:10:49.393Z,78.67
2018-06-30T00:11:49.410Z,78.77
2018-06-30T00:12:49.444Z,78.87
2018-06-30T00:13:49.401Z,78.77
2018-06-30T00:14:49.388Z,78.58
2018-06-30T00:17:08.583Z,78.77
2018-06-30T00:18:08.512Z,78.58
2018-06-30T00:19:08.556Z,78.58
2018-06-30T00:20:08.525Z,79.16
2018-06-30T00:21:08.493Z,78.58
2018-06-30T00:22:08.530Z,79.16
2018-06-30T00:23:08.530Z,78.58
2018-06-30T00:24:08.578Z,78.87
2018-06-30T00:26:27.221Z,78.96
2018-06-30T00:27:27.218Z,78.87
2018-06-30T00:28:27.229Z,78.96
2018-06-30T00:29:27.215Z,79.25
2018-06-30T00:30:27.216Z,79.06
2018-06-30T00:31:27.221Z,78.87
2018-06-30T00:32:27.205Z,79.35
2018-06-30T00:33:27.211Z,78.87
2018-06-30T00:34:27.243Z,79.25
2018-06-30T00:35:27.235Z,79.16
2018-06-30T00:36:27.230Z,79.16
2018-06-30T00:37:27.273Z,79.06
2018-06-30T00:38:27.283Z,79.06
2018-06-30T00:39:27.251Z,79.74
2018-06-30T00:40:27.255Z,79.93
2018-06-30T00:41:27.233Z,79.74
2018-06-30T00:42:27.267Z,80.22
2018-06-30T00:43:27.249Z,80.12
2018-06-30T00:44:27.230Z,80.22
2018-06-30T00:45:27.270Z,80.32
2018-06-30T00:46:27.241Z,79.83
2018-06-30T00:47:27.271Z,79.64
2018-06-30T00:48:27.304Z,80.12
2018-06-30T00:49:27.268Z,80.03
2018-06-30T00:50:27.265Z,80.22
2018-06-30T00:51:27.583Z,79.74
2018-06-30T00:52:27.257Z,79.74
2018-06-30T00:53:27.287Z,80.41
2018-06-30T00:54:27.272Z,80.22
2018-06-30T00:55:27.280Z,79.83
2018-06-30T00:56:27.254Z,80.03
2018-06-30T00:57:28.157Z,80.32
2018-06-30T00:58:27.293Z,80.12
2018-06-30T00:59:27.272Z,80.03
2018-06-30T01:00:27.304Z,79.93
2018-06-30T01:07:53.466Z,79.83
2018-06-30T01:08:04.907Z,79.93
2018-06-30T01:09:04.874Z,80.61
2018-06-30T01:10:04.902Z,79.93
2018-06-30T01:11:04.896Z,79.83
2018-06-30T01:12:04.857Z,79.93
2018-06-30T01:13:04.839Z,80.03
2018-06-30T01:14:04.869Z,79.93
2018-06-30T01:15:04.860Z,80.12
2018-06-30T01:16:04.842Z,80.12
2018-06-30T01:17:04.866Z,79.74
2018-06-30T01:18:04.870Z,79.93
2018-06-30T01:19:04.852Z,80.12
2018-06-30T01:20:04.857Z,80.71
2018-06-30T01:21:04.862Z,80.71
2018-06-30T01:22:04.861Z,80.61
2018-06-30T01:23:04.850Z,80.9
2018-06-30T01:24:04.870Z,80.51
2018-06-30T01:25:04.868Z,80.71
2018-06-30T01:26:04.870Z,80.8
2018-06-30T01:27:04.853Z,80.8
2018-06-30T01:28:04.883Z,80.61
2018-06-30T01:29:04.870Z,80.9
2018-06-30T01:30:04.879Z,80.8
2018-06-30T01:31:04.879Z,80.71
2018-06-30T01:32:04.860Z,80.9
2018-06-30T01:33:04.890Z,80.9
2018-06-30T01:34:04.899Z,80.8
2018-06-30T01:35:04.859Z,80.61
2018-06-30T01:36:04.885Z,80.61
2018-06-30T01:37:04.939Z,80.51
2018-06-30T01:38:04.883Z,80.61
2018-06-30T01:39:04.894Z,80.9
2018-06-30T01:40:04.934Z,80.61
2018-06-30T01:41:04.889Z,80.99
2018-06-30T01:42:04.912Z,80.61
2018-06-30T01:43:04.901Z,80.9
2018-06-30T01:44:04.914Z,81.29
2018-06-30T01:45:04.920Z,80.8
2018-06-30T01:46:04.874Z,80.8
2018-06-30T01:47:04.902Z,81.09
2018-06-30T01:48:04.885Z,81.19
2018-06-30T01:49:04.922Z,81.19
2018-06-30T01:50:04.963Z,80.8
2018-06-30T01:51:04.932Z,81.38
2018-06-30T01:52:04.914Z,80.71
2018-06-30T01:53:04.893Z,81.38
2018-06-30T01:54:04.927Z,81.38
2018-06-30T01:55:04.982Z,81.09
2018-06-30T01:56:04.937Z,81.09
2018-06-30T01:57:04.931Z,81.29
2018-06-30T01:58:04.932Z,81.19
2018-06-30T01:59:04.907Z,81.29
2018-06-30T02:00:04.973Z,81.09
2018-06-30T02:01:04.946Z,81.29
2018-06-30T02:02:04.952Z,81.38
2018-06-30T02:03:04.942Z,81.19
2018-06-30T02:07:33.642Z,80.71
2018-06-30T02:08:33.563Z,81.29
2018-06-30T02:09:33.577Z,81.48
2018-06-30T02:10:33.600Z,80.9
2018-06-30T02:11:33.585Z,80.71
2018-06-30T02:12:33.614Z,81.19
2018-06-30T02:13:33.596Z,81.38
2018-06-30T02:14:33.577Z,81.48
2018-06-30T02:15:33.607Z,81.29
2018-06-30T02:16:33.642Z,81.48
2018-06-30T02:17:33.620Z,80.9
2018-06-30T02:18:33.627Z,80.99
2018-06-30T02:19:33.608Z,81.38
2018-06-30T02:20:33.594Z,80.71
2018-06-30T02:21:33.656Z,81.38
2018-06-30T02:22:33.631Z,80.9
2018-06-30T02:23:33.634Z,80.99
2018-06-30T02:24:33.617Z,80.99
2018-06-30T02:25:33.623Z,80.71
2018-06-30T02:26:33.604Z,80.71
2018-06-30T02:27:33.656Z,80.61
2018-06-30T02:28:33.593Z,80.8
2018-06-30T02:29:33.655Z,80.9
2018-06-30T02:32:40.917Z,80.9
2018-06-30T02:32:52.418Z,80.8
2018-06-30T02:33:53.415Z,80.61
2018-06-30T02:34:52.419Z,80.61
2018-06-30T02:35:52.400Z,80.71
2018-06-30T02:36:52.416Z,80.8
2018-06-30T02:37:52.463Z,80.41
2018-06-30T02:38:52.418Z,80.41
2018-06-30T02:39:52.482Z,80.8
2018-06-30T02:40:52.438Z,80.22
2018-06-30T02:41:52.423Z,80.61
2018-06-30T02:42:52.445Z,80.61
2018-06-30T02:43:52.405Z,79.83
2018-06-30T02:44:52.414Z,80.03
2018-06-30T02:45:52.548Z,80.22
2018-06-30T02:46:52.429Z,80.51
2018-06-30T02:47:52.402Z,80.12
2018-06-30T02:48:52.466Z,79.93
2018-06-30T02:49:52.480Z,79.83
2018-06-30T02:50:52.457Z,80.22
2018-06-30T02:51:52.443Z,80.03
2018-06-30T02:52:52.436Z,80.12
2018-06-30T02:53:52.468Z,80.12
2018-06-30T02:54:52.480Z,80.41
2018-06-30T02:55:52.481Z,80.22
2018-06-30T02:56:52.471Z,80.41
2018-06-30T02:57:52.414Z,80.32
2018-06-30T02:58:52.451Z,80.32
2018-06-30T02:59:52.485Z,80.22
2018-06-30T03:00:52.445Z,80.61
2018-06-30T03:01:52.492Z,80.41
2018-06-30T03:02:52.465Z,80.41
2018-06-30T03:03:52.457Z,80.12
2018-06-30T03:04:52.453Z,80.22
2018-06-30T03:05:52.496Z,80.12
2018-06-30T03:06:52.489Z,80.03
2018-06-30T03:07:52.463Z,80.12
2018-06-30T03:08:52.461Z,80.12
2018-06-30T03:09:52.504Z,80.12
2018-06-30T03:10:52.512Z,79.83
2018-06-30T03:11:52.493Z,79.83
2018-06-30T03:12:52.472Z,80.03
2018-06-30T03:13:52.478Z,80.03
2018-06-30T03:14:52.485Z,80.12
2018-06-30T03:15:52.509Z,80.32
2018-06-30T03:16:52.493Z,80.12
2018-06-30T03:17:52.510Z,80.03
2018-06-30T03:18:52.484Z,80.32
2018-06-30T03:19:52.493Z,80.12
2018-06-30T03:20:52.525Z,79.93
2018-06-30T03:21:52.480Z,80.22
2018-06-30T03:22:52.488Z,80.12
2018-06-30T03:23:52.520Z,79.93
2018-06-30T03:24:52.516Z,80.32
2018-06-30T03:25:52.530Z,80.41
2018-06-30T03:26:52.507Z,80.03
2018-06-30T03:27:52.540Z,80.32
2018-06-30T03:28:52.520Z,79.87
2018-06-30T03:29:52.547Z,80.32
2018-06-30T03:30:52.528Z,80.41
2018-06-30T03:31:52.523Z,80.12
2018-06-30T03:32:52.489Z,80.32
2018-06-30T03:33:52.547Z,80.12
2018-06-30T03:34:52.503Z,80.03
2018-06-30T03:35:52.498Z,80.03
2018-06-30T03:36:52.569Z,80.22
2018-06-30T03:37:52.576Z,80.22
2018-06-30T03:38:52.551Z,80.32
2018-06-30T03:39:52.514Z,80.12
2018-06-30T03:40:52.520Z,79.83
2018-06-30T03:41:52.561Z,79.74
2018-06-30T03:42:52.540Z,79.83
2018-06-30T03:43:52.552Z,79.74
2018-06-30T03:44:52.527Z,79.83
2018-06-30T03:45:52.581Z,79.83
2018-06-30T03:46:52.558Z,80.03
2018-06-30T03:47:52.543Z,80.03
2018-06-30T03:48:52.546Z,80.03
2018-06-30T03:53:20.765Z,79.64
2018-06-30T03:54:20.754Z,79.74
2018-06-30T03:55:20.793Z,79.64
2018-06-30T03:56:20.750Z,79.58
2018-06-30T03:57:20.759Z,79.87
2018-06-30T03:58:20.736Z,79.06
2018-06-30T03:59:20.773Z,79.64
2018-06-30T04:03:49.723Z,79.25
2018-06-30T04:04:49.704Z,80.32
2018-06-30T04:05:49.733Z,80.32
2018-06-30T04:06:49.699Z,80.12
2018-06-30T04:07:49.723Z,80.32
2018-06-30T04:08:49.704Z,79.93
2018-06-30T04:09:49.717Z,80.32
2018-06-30T04:10:49.717Z,80.03
2018-06-30T04:11:49.727Z,80.41
2018-06-30T04:12:49.744Z,80.03
2018-06-30T04:13:49.739Z,79.45
2018-06-30T04:14:49.719Z,79.35
2018-06-30T04:15:53.059Z,79.64
2018-06-30T04:16:49.793Z,79.54
2018-06-30T04:17:49.765Z,79.35
2018-06-30T04:18:49.740Z,79.25
2018-06-30T04:19:49.731Z,79.64
2018-06-30T04:20:49.737Z,79.06
2018-06-30T04:21:49.722Z,79.54
2018-06-30T04:22:49.716Z,79.35
2018-06-30T04:23:49.728Z,79.45
2018-06-30T04:24:49.764Z,80.03
2018-06-30T04:29:18.262Z,80.12
2018-06-30T04:30:18.219Z,79.58
2018-06-30T04:31:18.244Z,79.35
2018-06-30T04:32:18.200Z,79.35
2018-06-30T04:33:18.228Z,79.45
2018-06-30T04:34:18.182Z,79.83
2018-06-30T04:35:18.190Z,79.93
2018-06-30T04:36:18.224Z,79.74
2018-06-30T04:37:18.200Z,80.03
2018-06-30T04:38:18.183Z,80.12
2018-06-30T04:39:18.220Z,79.64
2018-06-30T04:40:18.197Z,79.83
2018-06-30T04:41:18.228Z,80.12
2018-06-30T04:42:18.196Z,79.64
2018-06-30T04:43:18.188Z,79.35
2018-06-30T04:44:18.210Z,79.45
2018-06-30T04:45:18.265Z,79.49
2018-06-30T04:46:18.194Z,79.35
2018-06-30T04:47:18.252Z,79.35
2018-06-30T04:48:18.224Z,79.45
2018-06-30T04:49:18.265Z,79.54
2018-06-30T04:50:18.219Z,79.64
2018-06-30T04:51:18.219Z,79.64
2018-06-30T04:52:18.207Z,79.78
2018-06-30T04:53:18.233Z,79.54
2018-06-30T04:54:18.247Z,79.54
2018-06-30T04:55:18.224Z,79.25
2018-06-30T04:56:18.195Z,79.64
2018-06-30T04:58:37.845Z,79.06
2018-06-30T04:59:37.773Z,78.87
2018-06-30T05:00:37.800Z,79.16
2018-06-30T05:01:37.789Z,79.16
2018-06-30T05:02:37.781Z,79.16
2018-06-30T05:03:37.793Z,78.96
2018-06-30T05:04:37.789Z,79.16
2018-06-30T05:05:37.820Z,79.06
2018-06-30T05:06:37.829Z,79.06
2018-06-30T05:07:37.808Z,79.25
2018-06-30T05:08:37.814Z,79.35
2018-06-30T05:09:37.813Z,78.96
2018-06-30T05:10:37.822Z,79.06
2018-06-30T05:11:37.804Z,79.25
2018-06-30T05:12:37.838Z,79.25
2018-06-30T05:13:37.924Z,79.35
2018-06-30T05:14:37.793Z,79.35
2018-06-30T05:15:37.807Z,79.35
2018-06-30T05:16:37.834Z,78.87
2018-06-30T05:17:37.847Z,79.16
2018-06-30T05:18:37.832Z,79.25
2018-06-30T05:19:37.866Z,79.16
2018-06-30T05:20:37.858Z,79.06
2018-06-30T05:21:37.845Z,79.06
2018-06-30T05:22:37.853Z,78.81
2018-06-30T05:23:37.808Z,78.77
2018-06-30T05:24:37.868Z,78.96
2018-06-30T05:25:37.853Z,78.77
2018-06-30T05:26:37.847Z,78.87
2018-06-30T05:27:37.854Z,78.81
2018-06-30T05:28:37.845Z,78.77
2018-06-30T05:29:37.878Z,78.38
2018-06-30T05:30:37.850Z,78.87
2018-06-30T05:31:37.857Z,78.96
2018-06-30T05:32:37.861Z,79.16
2018-06-30T05:33:38.081Z,79.16
2018-06-30T05:34:37.846Z,78.48
2018-06-30T05:35:37.867Z,78.77
2018-06-30T05:36:37.858Z,78.67
2018-06-30T05:37:37.904Z,78.87
2018-06-30T05:38:37.861Z,78.67
2018-06-30T05:39:37.859Z,78.67
2018-06-30T05:40:37.871Z,78.38
2018-06-30T05:41:37.856Z,78.67
2018-06-30T05:43:56.596Z,78.67
2018-06-30T05:44:56.586Z,78.38
2018-06-30T05:45:56.565Z,78.29
2018-06-30T05:46:56.574Z,78.58
2018-06-30T05:47:56.572Z,78.58
2018-06-30T05:48:56.564Z,78.67
2018-06-30T05:49:56.544Z,78.67
2018-06-30T05:50:56.541Z,78.77
2018-06-30T05:55:23.972Z,79.16
2018-06-30T05:56:23.919Z,79.06
2018-06-30T05:58:42.579Z,78.58
2018-06-30T05:59:42.937Z,79.16
2018-06-30T06:00:42.529Z,79.06
2018-06-30T06:01:42.517Z,78.87
2018-06-30T06:02:42.542Z,78.77
2018-06-30T06:03:42.517Z,78.77
2018-06-30T06:04:42.524Z,78.87
2018-06-30T06:05:42.505Z,79.06
2018-06-30T06:06:42.593Z,78.87
2018-06-30T06:07:42.568Z,78.87
2018-06-30T06:08:42.582Z,78.87
2018-06-30T06:09:42.627Z,78.77
2018-06-30T06:10:42.518Z,78.67
2018-06-30T06:11:42.571Z,78.77
2018-06-30T06:12:43.148Z,78.96
2018-06-30T06:13:42.587Z,78.87
2018-06-30T06:14:42.550Z,78.77
2018-06-30T06:15:42.573Z,78.67
2018-06-30T06:16:42.615Z,78.77
2018-06-30T06:17:42.574Z,79.06
2018-06-30T06:18:42.624Z,79.06
2018-06-30T06:19:42.575Z,78.96
2018-06-30T06:20:42.549Z,78.67
2018-06-30T06:21:42.549Z,78.67
2018-06-30T06:22:42.547Z,78.96
2018-06-30T06:23:42.907Z,78.77
2018-06-30T06:24:42.566Z,78.67
2018-06-30T06:25:42.583Z,78.77
2018-06-30T06:26:42.565Z,79.25
2018-06-30T06:27:42.588Z,79.25
2018-06-30T06:28:42.599Z,79.06
2018-06-30T06:29:42.949Z,78.96
2018-06-30T06:30:42.591Z,78.96
2018-06-30T06:31:42.601Z,78.87
2018-06-30T06:32:42.709Z,79.06
2018-06-30T06:33:42.672Z,79.25
2018-06-30T06:34:42.595Z,78.87
2018-06-30T06:35:42.581Z,79.16
2018-06-30T06:36:42.631Z,79.06
2018-06-30T06:37:42.589Z,79.25
2018-06-30T06:38:42.576Z,79.35
2018-06-30T06:39:42.572Z,79.06
2018-06-30T06:40:42.584Z,78.96
2018-06-30T06:41:42.692Z,79.06
2018-06-30T06:42:42.620Z,78.96
2018-06-30T06:43:42.682Z,79.16
2018-06-30T06:44:42.581Z,79.16
2018-06-30T06:45:42.614Z,79.06
2018-06-30T06:46:42.622Z,79.16
2018-06-30T06:47:42.622Z,79.16
2018-06-30T06:48:42.640Z,79.06
2018-06-30T06:49:42.599Z,78.96
2018-06-30T06:50:42.630Z,78.96
2018-06-30T06:51:42.628Z,79.06
2018-06-30T06:52:42.642Z,79.45
2018-06-30T06:53:42.634Z,79.06
2018-06-30T06:54:42.663Z,79.45
2018-06-30T06:55:42.631Z,79.54
2018-06-30T06:56:42.620Z,79.74
2018-06-30T06:57:42.649Z,79.64
2018-06-30T06:58:58.803Z,79.64
2018-06-30T06:59:58.735Z,79.54
2018-06-30T07:00:58.740Z,79.68
2018-06-30T07:01:58.750Z,79.64
2018-06-30T07:02:58.749Z,79.54
2018-06-30T07:03:58.793Z,79.64
2018-06-30T07:04:59.095Z,79.58
2018-06-30T07:05:58.769Z,79.64
2018-06-30T07:06:58.732Z,79.64
2018-06-30T07:07:58.736Z,79.68
2018-06-30T07:08:58.818Z,79.45
2018-06-30T07:09:58.771Z,79.45
2018-06-30T07:10:58.757Z,79.35
2018-06-30T07:11:58.783Z,79.58
2018-06-30T07:12:58.764Z,79.58
2018-06-30T07:13:58.747Z,79.45
2018-06-30T07:14:58.753Z,79.54
2018-06-30T07:15:58.766Z,79.29
2018-06-30T07:16:58.787Z,79.39
2018-06-30T07:17:58.772Z,79.39
2018-06-30T07:18:58.787Z,79.45
2018-06-30T07:19:58.791Z,79.39
2018-06-30T07:20:58.764Z,79.58
2018-06-30T07:21:58.798Z,80.03
2018-06-30T07:22:58.784Z,79.58
2018-06-30T07:23:58.786Z,79.29
2018-06-30T07:24:58.802Z,79.58
2018-06-30T07:25:58.826Z,79.58
2018-06-30T07:26:58.887Z,79.64
2018-06-30T07:27:58.842Z,79.68
2018-06-30T07:28:58.791Z,79.87
2018-06-30T07:29:58.827Z,79.87
2018-06-30T07:30:58.811Z,79.68
2018-06-30T07:31:58.797Z,79.49
2018-06-30T07:32:58.802Z,79.58
2018-06-30T07:33:59.094Z,79.74
2018-06-30T07:34:58.856Z,79.78
2018-06-30T07:35:58.789Z,79.68
2018-06-30T07:36:59.537Z,79.68
2018-06-30T07:37:58.831Z,79.54
2018-06-30T07:38:58.832Z,79.54
2018-06-30T07:39:58.826Z,79.49
2018-06-30T07:40:58.837Z,79.58
2018-06-30T07:41:58.833Z,79.58
2018-06-30T07:42:58.865Z,79.58
2018-06-30T07:43:58.797Z,79.78
2018-06-30T07:44:58.827Z,79.87
2018-06-30T07:45:58.828Z,79.39
2018-06-30T07:50:28.229Z,79.06
2018-06-30T07:51:28.153Z,79.06
2018-06-30T07:52:28.175Z,79.29
2018-06-30T07:53:28.309Z,78.96
2018-06-30T07:54:28.196Z,79.1
2018-06-30T07:55:28.160Z,79.2
2018-06-30T07:56:28.184Z,79.06
2018-06-30T07:57:28.209Z,78.96
2018-06-30T07:58:28.213Z,79.2
2018-06-30T07:59:28.174Z,79.1
2018-06-30T08:00:28.206Z,79.16
2018-06-30T08:01:28.187Z,78.71
2018-06-30T08:02:28.170Z,79.1
2018-06-30T08:03:28.203Z,79.35
2018-06-30T08:04:28.157Z,79.2
2018-06-30T08:05:28.183Z,79.45
2018-06-30T08:06:28.211Z,79.58
2018-06-30T08:07:28.254Z,79.58
2018-06-30T08:08:28.181Z,79.49
2018-06-30T08:09:28.226Z,79.68
2018-06-30T08:10:28.248Z,79.58
2018-06-30T08:11:28.183Z,79.64
2018-06-30T08:12:28.188Z,79.78
2018-06-30T08:13:28.220Z,79.54
2018-06-30T08:14:28.256Z,79.54
2018-06-30T08:15:28.251Z,79.39
2018-06-30T08:16:28.266Z,79.58
2018-06-30T08:17:28.495Z,79.68
2018-06-30T08:18:28.955Z,79.58
2018-06-30T08:19:28.230Z,79.49
2018-06-30T08:20:28.216Z,79.68
2018-06-30T08:25:44.962Z,79.58
2018-06-30T08:25:56.383Z,79.49
2018-06-30T08:26:56.438Z,79.58
2018-06-30T08:29:15.040Z,80.07
2018-06-30T08:30:15.010Z,79.78
2018-06-30T08:31:15.055Z,80.16
2018-06-30T08:32:15.082Z,80.46
2018-06-30T08:33:15.070Z,79.87
2018-06-30T08:34:15.155Z,80.07
2018-06-30T08:35:15.096Z,80.46
2018-06-30T08:36:15.142Z,79.87
2018-06-30T08:37:15.067Z,80.46
2018-06-30T08:38:15.036Z,79.97
2018-06-30T08:39:15.044Z,80.26
2018-06-30T08:40:15.106Z,80.55
2018-06-30T08:41:15.065Z,80.26
2018-06-30T08:42:15.064Z,80.07
2018-06-30T08:43:15.075Z,79.97
2018-06-30T08:44:15.076Z,80.16
2018-06-30T08:45:15.116Z,80.07
2018-06-30T08:46:15.073Z,80.36
2018-06-30T08:47:15.075Z,78.91
2018-06-30T08:48:15.080Z,78.91
2018-06-30T08:49:15.091Z,79
2018-06-30T08:50:15.133Z,77.17
2018-06-30T08:51:15.138Z,77.65
2018-06-30T08:52:15.059Z,78.52
2018-06-30T08:53:15.097Z,78.03
2018-06-30T08:54:15.088Z,77.36
2018-06-30T08:55:15.141Z,77.45
2018-06-30T08:56:15.136Z,78.13
2018-06-30T08:57:15.115Z,77.94
2018-06-30T08:58:15.143Z,78.42
2018-06-30T08:59:15.078Z,78.23
2018-06-30T09:00:15.142Z,77.84
2018-06-30T09:01:15.099Z,77.94
2018-06-30T09:02:15.142Z,77.94
2018-06-30T09:03:15.128Z,78.03
2018-06-30T09:04:15.127Z,77.94
2018-06-30T09:05:15.110Z,77.75
2018-06-30T09:06:15.192Z,77.65
2018-06-30T09:07:15.135Z,77.75
2018-06-30T09:08:15.110Z,77.65
2018-06-30T09:09:15.119Z,77.75
2018-06-30T09:10:15.117Z,77.65
2018-06-30T09:11:15.115Z,77.84
2018-06-30T09:12:15.174Z,77.75
2018-06-30T09:13:15.163Z,77.65
2018-06-30T09:14:15.133Z,77.84
2018-06-30T09:15:15.129Z,77.84
2018-06-30T09:16:15.228Z,77.84
2018-06-30T09:17:15.169Z,78.03
2018-06-30T09:18:15.156Z,77.45
2018-06-30T09:19:16.896Z,75.71
2018-06-30T09:20:15.227Z,76.59
2018-06-30T09:21:15.142Z,76.97
2018-06-30T09:22:15.157Z,76.78
2018-06-30T09:23:15.165Z,76.68
2018-06-30T09:24:15.234Z,76.97
2018-06-30T09:25:15.145Z,76.68
2018-06-30T09:26:15.155Z,76.97
2018-06-30T09:27:15.183Z,77.07
2018-06-30T09:28:15.219Z,77.36
2018-06-30T09:29:15.147Z,77.45
2018-06-30T09:30:15.187Z,77.65
2018-06-30T09:31:15.236Z,76.97
2018-06-30T09:32:15.162Z,76.97
2018-06-30T09:34:34.040Z,76.78
2018-06-30T09:35:34.026Z,77.36
2018-06-30T09:36:34.027Z,77.07
2018-06-30T09:37:33.991Z,77.07
2018-06-30T09:38:34.050Z,77.07
2018-06-30T09:39:33.994Z,77.65
2018-06-30T09:40:35.033Z,76.97
2018-06-30T09:41:34.046Z,77.07
2018-06-30T09:42:34.022Z,76.78
2018-06-30T09:43:34.102Z,76.87
2018-06-30T09:44:34.097Z,77.65
2018-06-30T09:45:33.995Z,77.75
2018-06-30T09:46:34.022Z,77.07
2018-06-30T09:47:34.057Z,76.97
2018-06-30T09:48:34.016Z,76.97
2018-06-30T09:49:34.009Z,77.07
2018-06-30T09:50:34.089Z,76.97
2018-06-30T09:51:34.001Z,76.97
2018-06-30T09:52:34.035Z,76.78
2018-06-30T09:53:34.005Z,76.97
2018-06-30T09:54:34.013Z,77.07
2018-06-30T09:55:34.004Z,76.97
2018-06-30T09:56:34.063Z,76.97
2018-06-30T09:57:34.037Z,76.87
2018-06-30T09:58:34.068Z,76.68
2018-06-30T09:59:34.134Z,76.97
2018-06-30T10:00:34.175Z,76.87
2018-06-30T10:01:34.088Z,76.78
2018-06-30T10:02:34.068Z,76.68
2018-06-30T10:03:34.022Z,76.97
2018-06-30T10:04:34.053Z,76.78
2018-06-30T10:05:34.079Z,76.97
2018-06-30T10:06:34.023Z,76.68
2018-06-30T10:07:34.048Z,76.59
2018-06-30T10:08:34.038Z,76.68
2018-06-30T10:09:34.072Z,76.97
2018-06-30T10:10:34.052Z,76.68
2018-06-30T10:11:34.033Z,76.59
2018-06-30T10:12:34.130Z,76.97
2018-06-30T10:13:34.068Z,76.78
2018-06-30T10:14:34.076Z,76.97
2018-06-30T10:15:34.039Z,76.68
2018-06-30T10:16:34.112Z,76.78
2018-06-30T10:17:34.080Z,76.87
2018-06-30T10:18:34.669Z,77.07
2018-06-30T10:19:34.181Z,76.68
2018-06-30T10:20:34.087Z,76.59
2018-06-30T10:21:34.246Z,76.78
2018-06-30T10:22:34.098Z,76.97
2018-06-30T10:23:34.076Z,76.87
2018-06-30T10:24:34.092Z,76.87
2018-06-30T10:25:34.088Z,76.78
2018-06-30T10:26:34.097Z,76.78
2018-06-30T10:27:34.104Z,76.78
2018-06-30T10:28:34.137Z,76.78
2018-06-30T10:29:34.097Z,76.78
2018-06-30T10:30:34.150Z,76.78
2018-06-30T10:31:34.105Z,77.17
2018-06-30T10:32:34.093Z,76.78
2018-06-30T10:33:34.142Z,77.13
2018-06-30T10:34:34.107Z,77.07
2018-06-30T10:35:34.117Z,77.17
2018-06-30T10:36:34.059Z,76.97
2018-06-30T10:37:34.179Z,76.97
2018-06-30T10:38:34.132Z,76.97
2018-06-30T10:39:34.090Z,76.87
2018-06-30T10:40:34.089Z,76.97
2018-06-30T10:41:34.202Z,76.93
2018-06-30T10:42:34.126Z,76.97
2018-06-30T10:43:34.136Z,77.17
2018-06-30T10:44:34.212Z,77.17
2018-06-30T10:45:34.099Z,77.13
2018-06-30T10:46:34.106Z,77.17
2018-06-30T10:47:34.144Z,76.78
2018-06-30T10:48:34.149Z,77.13
2018-06-30T10:49:34.180Z,77.17
2018-06-30T10:50:34.163Z,77.07
2018-06-30T10:51:34.186Z,77.17
2018-06-30T10:52:34.155Z,77.17
2018-06-30T10:53:34.149Z,77.07
2018-06-30T10:54:34.177Z,77.07
2018-06-30T10:55:34.210Z,77.07
2018-06-30T10:56:34.178Z,77.03
2018-06-30T10:57:34.282Z,76.87
2018-06-30T10:58:34.226Z,76.87
2018-06-30T10:59:34.289Z,76.87
2018-06-30T11:00:34.268Z,76.97
2018-06-30T11:01:34.154Z,76.97
2018-06-30T11:02:34.189Z,76.97
2018-06-30T11:03:34.170Z,76.97
2018-06-30T11:04:34.211Z,76.87
2018-06-30T11:05:34.170Z,76.78
2018-06-30T11:06:34.177Z,76.87
2018-06-30T11:07:34.175Z,76.97
2018-06-30T11:08:34.179Z,76.78
2018-06-30T11:09:34.158Z,76.78
2018-06-30T11:10:34.160Z,76.55
2018-06-30T11:11:34.136Z,76.87
2018-06-30T11:12:34.208Z,76.59
2018-06-30T11:13:34.209Z,76.55
2018-06-30T11:14:34.215Z,76.68
2018-06-30T11:15:34.198Z,76.59
2018-06-30T11:16:34.188Z,76.59
2018-06-30T11:17:34.271Z,76.55
2018-06-30T11:18:34.180Z,76.45
2018-06-30T11:19:34.174Z,76.68
2018-06-30T11:20:34.172Z,76.45
2018-06-30T11:21:34.185Z,76.45
2018-06-30T11:22:34.272Z,76.74
2018-06-30T11:23:34.209Z,76.55
2018-06-30T11:24:34.223Z,76.87
2018-06-30T11:25:34.199Z,76.87
2018-06-30T11:26:34.242Z,76.74
2018-06-30T11:27:34.222Z,76.84
2018-06-30T11:28:34.270Z,76.64
2018-06-30T11:29:34.386Z,76.68
2018-06-30T11:30:34.219Z,76.45
2018-06-30T11:31:34.241Z,76.68
2018-06-30T11:32:34.218Z,76.68
2018-06-30T11:33:34.203Z,76.26
2018-06-30T11:34:34.194Z,76.45
2018-06-30T11:35:34.600Z,76.68
2018-06-30T11:36:34.226Z,76.45
2018-06-30T11:37:34.253Z,76.55
2018-06-30T11:38:34.246Z,76.35
2018-06-30T11:39:34.215Z,76.55
2018-06-30T11:40:34.372Z,76.87
2018-06-30T11:41:34.538Z,76.78
2018-06-30T11:42:34.284Z,76.55
2018-06-30T11:43:34.213Z,76.59
2018-06-30T11:44:34.254Z,76.84
2018-06-30T11:45:34.226Z,76.59
2018-06-30T11:46:34.365Z,76.68
2018-06-30T11:47:36.424Z,76.55
2018-06-30T11:48:34.299Z,76.16
2018-06-30T11:49:34.293Z,76.2
2018-06-30T11:50:34.423Z,76.68
2018-06-30T11:51:34.271Z,76.35
2018-06-30T11:52:34.276Z,76.39
2018-06-30T11:53:34.234Z,76.49
2018-06-30T11:54:34.233Z,76.55
2018-06-30T11:55:34.288Z,76.45
2018-06-30T11:56:34.298Z,76.59
2018-06-30T11:57:34.258Z,76.45
2018-06-30T11:58:34.291Z,76.2
2018-06-30T11:59:34.269Z,76.39
2018-06-30T12:00:34.276Z,76.29
2018-06-30T12:01:34.259Z,76.29
2018-06-30T12:02:34.297Z,76.29
2018-06-30T12:03:34.312Z,76.35
2018-06-30T12:04:34.248Z,76.59
2018-06-30T12:05:38.544Z,76.45
2018-06-30T12:06:34.266Z,76.2
2018-06-30T12:07:34.350Z,76.2
2018-06-30T12:08:34.386Z,76.39
2018-06-30T12:09:34.333Z,76.35
2018-06-30T12:10:34.335Z,76.2
2018-06-30T12:11:34.354Z,76.26
2018-06-30T12:12:34.284Z,76.35
2018-06-30T12:13:34.288Z,76.39
2018-06-30T12:14:34.303Z,76.26
2018-06-30T12:15:34.426Z,76.1
2018-06-30T12:16:34.329Z,76.39
2018-06-30T12:17:34.399Z,76.06
2018-06-30T12:18:34.366Z,76.06
2018-06-30T12:19:34.412Z,76.26
2018-06-30T12:20:34.365Z,76.2
2018-06-30T12:21:34.337Z,76.06
2018-06-30T12:22:34.274Z,76.39
2018-06-30T12:23:34.300Z,76.1
2018-06-30T12:24:34.339Z,76.2
2018-06-30T12:25:34.385Z,76.16
2018-06-30T12:26:34.390Z,76.29
2018-06-30T12:27:34.295Z,76.16
2018-06-30T12:28:34.335Z,76.29
2018-06-30T12:29:34.316Z,76.16
2018-06-30T12:30:34.316Z,76.35
2018-06-30T12:31:34.327Z,76.16
2018-06-30T12:32:34.284Z,76.2
2018-06-30T12:33:34.315Z,76.16
2018-06-30T12:34:34.342Z,76.26
2018-06-30T12:35:34.302Z,76.16
2018-06-30T12:36:34.344Z,75.97
2018-06-30T12:37:34.313Z,76.2
2018-06-30T12:38:34.348Z,76.29
2018-06-30T12:39:34.333Z,76.16
2018-06-30T12:40:34.320Z,76.01
2018-06-30T12:41:34.414Z,76.26
2018-06-30T12:42:34.321Z,76.45
2018-06-30T12:43:34.326Z,76.29
2018-06-30T12:44:34.364Z,76.2
2018-06-30T12:45:34.413Z,76.29
2018-06-30T12:46:34.373Z,76.26
2018-06-30T12:47:34.357Z,76.26
2018-06-30T12:48:34.346Z,76.26
2018-06-30T12:49:34.315Z,76.16
2018-06-30T12:50:34.346Z,76.29
2018-06-30T12:51:34.359Z,76.39
2018-06-30T12:52:34.421Z,76.1
2018-06-30T12:53:34.397Z,76.26
2018-06-30T12:54:34.533Z,74.9
2018-06-30T12:55:34.416Z,74.17
2018-06-30T12:56:34.391Z,74.23
2018-06-30T12:57:34.575Z,74.65
2018-06-30T12:58:34.401Z,74.65
2018-06-30T12:59:34.369Z,73.68
2018-06-30T13:00:34.419Z,73.26
2018-06-30T13:07:15.485Z,73.59
2018-06-30T13:08:16.931Z,73.88
2018-06-30T13:09:15.419Z,73.49
2018-06-30T13:10:15.508Z,73.39
2018-06-30T13:11:15.384Z,73.3
2018-06-30T13:12:15.537Z,72.81
2018-06-30T13:13:15.387Z,72.24
2018-06-30T13:14:15.384Z,71.94
2018-06-30T13:15:15.438Z,71.17
2018-06-30T13:16:15.371Z,71.84
2018-06-30T13:17:15.399Z,71.75
2018-06-30T13:18:15.393Z,70.88
2018-06-30T13:19:15.413Z,70.88
2018-06-30T13:20:15.522Z,70.88
2018-06-30T13:21:15.481Z,71.46
2018-06-30T13:22:15.432Z,70.78
2018-06-30T13:23:15.510Z,71.17
2018-06-30T13:24:15.395Z,70.98
2018-06-30T13:25:15.400Z,70.68
2018-06-30T13:26:15.461Z,70.46
2018-06-30T13:27:15.402Z,70.88
2018-06-30T13:28:15.455Z,70.78
2018-06-30T13:29:15.455Z,70.68
2018-06-30T13:30:16.285Z,70.98
2018-06-30T13:31:16.830Z,70.78
2018-06-30T13:32:15.400Z,70.78
2018-06-30T13:33:15.403Z,70.68
2018-06-30T13:34:15.641Z,70.68
2018-06-30T13:35:15.588Z,70.98
2018-06-30T13:36:15.428Z,71.26
2018-06-30T13:37:15.481Z,70.59
2018-06-30T13:38:15.481Z,70.5
2018-06-30T13:39:15.507Z,70.78
2018-06-30T13:40:15.502Z,70.98
2018-06-30T13:41:15.443Z,70.78